sensor_id;sensor_type;location;lat;lon;timestamp;temperature;humidity
12847;DHT22;6492;48.128;8.320;2023-06-14T00:01:09;9.20;6.20
12847;DHT22;6492;48.128;8.320;2023-06-14T00:05:13;9.00;6.30
12847;DHT22;6492;48.128;8.320;2023-06-14T00:09:15;9.00;6.90
12847;DHT22;6492;48.128;8.320;2023-06-14T00:13:18;8.90;6.90
12847;DHT22;6492;48.128;8.320;2023-06-14T00:17:21;9.00;6.70
12847;DHT22;6492;48.128;8.320;2023-06-14T00:21:23;8.90;6.30
12847;DHT22;6492;48.128;8.320;2023-06-14T00:25:25;8.90;6.10
12847;DHT22;6492;48.128;8.320;2023-06-14T00:29:26;8.80;6.30
12847;DHT22;6492;48.128;8.320;2023-06-14T00:33:30;8.70;6.40
12847;DHT22;6492;48.128;8.320;2023-06-14T00:37:31;8.60;6.50
12847;DHT22;6492;48.128;8.320;2023-06-14T00:41:33;8.70;6.50
12847;DHT22;6492;48.128;8.320;2023-06-14T00:45:36;8.60;6.30
12847;DHT22;6492;48.128;8.320;2023-06-14T00:49:40;8.50;6.00
12847;DHT22;6492;48.128;8.320;2023-06-14T00:53:42;8.70;5.80
12847;DHT22;6492;48.128;8.320;2023-06-14T00:57:48;8.80;5.60
12847;DHT22;6492;48.128;8.320;2023-06-14T01:01:49;8.90;5.00
12847;DHT22;6492;48.128;8.320;2023-06-14T01:06:01;9.00;5.10
12847;DHT22;6492;48.128;8.320;2023-06-14T01:10:18;9.00;5.00
12847;DHT22;6492;48.128;8.320;2023-06-14T01:14:22;9.10;4.60
12847;DHT22;6492;48.128;8.320;2023-06-14T01:18:25;9.00;5.00
12847;DHT22;6492;48.128;8.320;2023-06-14T01:22:28;9.00;5.20
12847;DHT22;6492;48.128;8.320;2023-06-14T01:26:32;9.00;5.00
12847;DHT22;6492;48.128;8.320;2023-06-14T01:30:34;8.90;5.00
12847;DHT22;6492;48.128;8.320;2023-06-14T01:34:38;8.80;5.00
12847;DHT22;6492;48.128;8.320;2023-06-14T01:38:40;8.70;5.70
12847;DHT22;6492;48.128;8.320;2023-06-14T01:42:46;8.60;5.90
12847;DHT22;6492;48.128;8.320;2023-06-14T01:46:48;8.50;6.10
12847;DHT22;6492;48.128;8.320;2023-06-14T01:50:50;8.40;6.60
12847;DHT22;6492;48.128;8.320;2023-06-14T01:54:53;8.30;7.00
12847;DHT22;6492;48.128;8.320;2023-06-14T01:59:00;8.20;7.40
12847;DHT22;6492;48.128;8.320;2023-06-14T02:03:02;8.20;8.30
12847;DHT22;6492;48.128;8.320;2023-06-14T02:07:04;8.30;7.80
12847;DHT22;6492;48.128;8.320;2023-06-14T02:11:06;8.50;7.00
12847;DHT22;6492;48.128;8.320;2023-06-14T02:15:10;8.70;6.20
12847;DHT22;6492;48.128;8.320;2023-06-14T02:19:17;8.80;6.00
12847;DHT22;6492;48.128;8.320;2023-06-14T02:23:19;8.90;5.70
12847;DHT22;6492;48.128;8.320;2023-06-14T02:27:21;8.90;4.70
12847;DHT22;6492;48.128;8.320;2023-06-14T02:31:25;8.80;4.60
12847;DHT22;6492;48.128;8.320;2023-06-14T02:35:27;8.70;4.70
12847;DHT22;6492;48.128;8.320;2023-06-14T02:39:29;8.40;5.10
12847;DHT22;6492;48.128;8.320;2023-06-14T02:43:31;8.70;6.20
12847;DHT22;6492;48.128;8.320;2023-06-14T02:47:34;8.00;7.10
12847;DHT22;6492;48.128;8.320;2023-06-14T02:51:36;7.90;8.40
12847;DHT22;6492;48.128;8.320;2023-06-14T02:55:38;7.70;9.30
12847;DHT22;6492;48.128;8.320;2023-06-14T02:59:40;7.60;10.30
12847;DHT22;6492;48.128;8.320;2023-06-14T03:03:44;7.40;11.00
12847;DHT22;6492;48.128;8.320;2023-06-14T03:07:45;7.30;11.60
12847;DHT22;6492;48.128;8.320;2023-06-14T03:11:47;7.20;11.70
12847;DHT22;6492;48.128;8.320;2023-06-14T03:15:49;7.10;12.30
12847;DHT22;6492;48.128;8.320;2023-06-14T03:19:53;7.10;12.70
12847;DHT22;6492;48.128;8.320;2023-06-14T03:23:55;7.00;12.80
12847;DHT22;6492;48.128;8.320;2023-06-14T03:27:57;7.00;12.80
12847;DHT22;6492;48.128;8.320;2023-06-14T03:32:00;7.00;13.00
12847;DHT22;6492;48.128;8.320;2023-06-14T03:36:04;7.10;13.20
12847;DHT22;6492;48.128;8.320;2023-06-14T03:40:06;7.20;12.80
12847;DHT22;6492;48.128;8.320;2023-06-14T03:44:09;7.30;12.30
12847;DHT22;6492;48.128;8.320;2023-06-14T03:48:12;7.40;11.50
12847;DHT22;6492;48.128;8.320;2023-06-14T03:52:15;7.40;11.90
12847;DHT22;6492;48.128;8.320;2023-06-14T03:56:17;7.50;11.40
12847;DHT22;6492;48.128;8.320;2023-06-14T04:00:19;7.60;10.60
12847;DHT22;6492;48.128;8.320;2023-06-14T04:04:21;7.70;10.00
12847;DHT22;6492;48.128;8.320;2023-06-14T04:08:31;7.70;9.80
12847;DHT22;6492;48.128;8.320;2023-06-14T04:12:32;7.80;10.00
12847;DHT22;6492;48.128;8.320;2023-06-14T04:16:34;7.70;10.70
12847;DHT22;6492;48.128;8.320;2023-06-14T04:20:36;7.70;11.20
12847;DHT22;6492;48.128;8.320;2023-06-14T04:24:56;7.70;11.50
12847;DHT22;6492;48.128;8.320;2023-06-14T04:28:59;7.70;11.40
12847;DHT22;6492;48.128;8.320;2023-06-14T04:33:02;7.80;11.90
12847;DHT22;6492;48.128;8.320;2023-06-14T04:37:06;7.90;12.60
12847;DHT22;6492;48.128;8.320;2023-06-14T04:41:17;7.90;12.90
12847;DHT22;6492;48.128;8.320;2023-06-14T04:45:19;8.00;11.90
12847;DHT22;6492;48.128;8.320;2023-06-14T04:49:22;8.10;12.30
12847;DHT22;6492;48.128;8.320;2023-06-14T04:53:31;8.20;12.50
12847;DHT22;6492;48.128;8.320;2023-06-14T04:57:34;8.40;12.80
12847;DHT22;6492;48.128;8.320;2023-06-14T05:01:36;8.50;12.80
12847;DHT22;6492;48.128;8.320;2023-06-14T05:05:38;8.60;13.00
12847;DHT22;6492;48.128;8.320;2023-06-14T05:09:40;8.70;12.90
12847;DHT22;6492;48.128;8.320;2023-06-14T05:13:43;8.90;12.90
12847;DHT22;6492;48.128;8.320;2023-06-14T05:17:46;9.00;12.70
12847;DHT22;6492;48.128;8.320;2023-06-14T05:21:53;9.10;12.90
12847;DHT22;6492;48.128;8.320;2023-06-14T05:25:55;9.20;12.90
12847;DHT22;6492;48.128;8.320;2023-06-14T05:29:59;9.30;12.60
12847;DHT22;6492;48.128;8.320;2023-06-14T05:34:01;9.50;12.20
12847;DHT22;6492;48.128;8.320;2023-06-14T05:38:03;9.70;12.40
12847;DHT22;6492;48.128;8.320;2023-06-14T05:42:05;9.80;12.30
12847;DHT22;6492;48.128;8.320;2023-06-14T05:46:08;9.90;12.20
12847;DHT22;6492;48.128;8.320;2023-06-14T05:50:10;10.20;12.20
12847;DHT22;6492;48.128;8.320;2023-06-14T05:54:12;10.30;12.10
12847;DHT22;6492;48.128;8.320;2023-06-14T05:58:14;10.50;11.60
12847;DHT22;6492;48.128;8.320;2023-06-14T06:02:17;10.70;10.30
12847;DHT22;6492;48.128;8.320;2023-06-14T06:06:19;11.00;10.00
12847;DHT22;6492;48.128;8.320;2023-06-14T06:10:21;11.20;9.10
12847;DHT22;6492;48.128;8.320;2023-06-14T06:14:22;11.50;8.00
12847;DHT22;6492;48.128;8.320;2023-06-14T06:18:25;12.60;5.80
12847;DHT22;6492;48.128;8.320;2023-06-14T06:22:27;14.00;2.90
12847;DHT22;6492;48.128;8.320;2023-06-14T06:26:29;15.90;1.00
12847;DHT22;6492;48.128;8.320;2023-06-14T06:30:31;17.70;1.00
12847;DHT22;6492;48.128;8.320;2023-06-14T06:34:34;19.30;1.00
12847;DHT22;6492;48.128;8.320;2023-06-14T06:38:36;21.00;1.00
12847;DHT22;6492;48.128;8.320;2023-06-14T06:42:38;22.90;1.00
12847;DHT22;6492;48.128;8.320;2023-06-14T06:46:40;24.80;1.00
12847;DHT22;6492;48.128;8.320;2023-06-14T06:50:44;26.00;1.00
12847;DHT22;6492;48.128;8.320;2023-06-14T06:54:46;27.20;1.00
12847;DHT22;6492;48.128;8.320;2023-06-14T06:58:49;27.90;1.00
12847;DHT22;6492;48.128;8.320;2023-06-14T07:02:51;28.60;1.00
12847;DHT22;6492;48.128;8.320;2023-06-14T07:06:56;28.80;1.00
12847;DHT22;6492;48.128;8.320;2023-06-14T07:10:58;29.20;1.00
12847;DHT22;6492;48.128;8.320;2023-06-14T07:15:00;29.80;1.00
12847;DHT22;6492;48.128;8.320;2023-06-14T07:19:02;30.50;1.00
12847;DHT22;6492;48.128;8.320;2023-06-14T07:23:05;31.00;1.00
12847;DHT22;6492;48.128;8.320;2023-06-14T07:27:07;31.00;1.00
12847;DHT22;6492;48.128;8.320;2023-06-14T07:31:09;30.70;1.00
12847;DHT22;6492;48.128;8.320;2023-06-14T07:35:11;30.80;1.00
12847;DHT22;6492;48.128;8.320;2023-06-14T07:39:14;30.70;1.00
12847;DHT22;6492;48.128;8.320;2023-06-14T07:43:16;30.70;1.00
12847;DHT22;6492;48.128;8.320;2023-06-14T07:47:18;31.10;1.00
12847;DHT22;6492;48.128;8.320;2023-06-14T07:51:20;31.00;1.00
12847;DHT22;6492;48.128;8.320;2023-06-14T07:55:23;30.60;1.00
12847;DHT22;6492;48.128;8.320;2023-06-14T07:59:25;30.50;1.00
12847;DHT22;6492;48.128;8.320;2023-06-14T08:03:27;30.50;1.00
12847;DHT22;6492;48.128;8.320;2023-06-14T08:07:30;30.70;1.00
12847;DHT22;6492;48.128;8.320;2023-06-14T08:11:33;30.70;1.00
12847;DHT22;6492;48.128;8.320;2023-06-14T08:15:35;30.30;1.00
12847;DHT22;6492;48.128;8.320;2023-06-14T08:19:37;30.40;1.00
12847;DHT22;6492;48.128;8.320;2023-06-14T08:23:39;30.60;1.00
12847;DHT22;6492;48.128;8.320;2023-06-14T08:27:42;30.40;1.00
12847;DHT22;6492;48.128;8.320;2023-06-14T08:31:44;30.20;1.00
12847;DHT22;6492;48.128;8.320;2023-06-14T08:35:46;29.90;1.00
12847;DHT22;6492;48.128;8.320;2023-06-14T08:39:49;29.80;1.00
12847;DHT22;6492;48.128;8.320;2023-06-14T08:43:52;29.30;1.00
12847;DHT22;6492;48.128;8.320;2023-06-14T08:47:54;28.50;1.00
12847;DHT22;6492;48.128;8.320;2023-06-14T08:52:01;28.40;1.00
12847;DHT22;6492;48.128;8.320;2023-06-14T08:56:05;28.20;1.00
12847;DHT22;6492;48.128;8.320;2023-06-14T09:00:11;27.90;1.00
12847;DHT22;6492;48.128;8.320;2023-06-14T09:04:13;27.70;1.00
12847;DHT22;6492;48.128;8.320;2023-06-14T09:08:16;27.60;1.00
12847;DHT22;6492;48.128;8.320;2023-06-14T09:12:19;27.30;1.00
12847;DHT22;6492;48.128;8.320;2023-06-14T09:16:22;27.00;1.00
12847;DHT22;6492;48.128;8.320;2023-06-14T09:20:25;26.80;1.00
12847;DHT22;6492;48.128;8.320;2023-06-14T09:24:27;26.70;1.00
12847;DHT22;6492;48.128;8.320;2023-06-14T09:28:28;26.60;1.00
12847;DHT22;6492;48.128;8.320;2023-06-14T09:32:36;26.70;1.00
12847;DHT22;6492;48.128;8.320;2023-06-14T09:36:39;26.90;1.00
12847;DHT22;6492;48.128;8.320;2023-06-14T09:40:43;27.20;1.00
12847;DHT22;6492;48.128;8.320;2023-06-14T09:44:45;26.90;1.00
12847;DHT22;6492;48.128;8.320;2023-06-14T09:48:50;26.70;1.00
12847;DHT22;6492;48.128;8.320;2023-06-14T09:52:52;26.70;1.00
12847;DHT22;6492;48.128;8.320;2023-06-14T09:56:59;26.70;1.00
12847;DHT22;6492;48.128;8.320;2023-06-14T10:01:03;26.70;1.00
12847;DHT22;6492;48.128;8.320;2023-06-14T10:05:08;26.90;1.00
12847;DHT22;6492;48.128;8.320;2023-06-14T10:09:12;26.70;1.00
12847;DHT22;6492;48.128;8.320;2023-06-14T10:13:15;26.60;1.00
12847;DHT22;6492;48.128;8.320;2023-06-14T10:17:23;26.80;1.00
12847;DHT22;6492;48.128;8.320;2023-06-14T10:21:36;27.20;1.00
12847;DHT22;6492;48.128;8.320;2023-06-14T10:25:39;27.40;1.00
12847;DHT22;6492;48.128;8.320;2023-06-14T10:30:02;27.90;1.00
12847;DHT22;6492;48.128;8.320;2023-06-14T10:34:04;27.90;1.00
12847;DHT22;6492;48.128;8.320;2023-06-14T10:38:12;27.90;1.00
12847;DHT22;6492;48.128;8.320;2023-06-14T10:42:14;27.80;1.00
12847;DHT22;6492;48.128;8.320;2023-06-14T10:46:17;27.70;1.00
12847;DHT22;6492;48.128;8.320;2023-06-14T10:50:45;28.00;1.00
12847;DHT22;6492;48.128;8.320;2023-06-14T10:55:18;27.90;1.00
12847;DHT22;6492;48.128;8.320;2023-06-14T10:59:22;28.20;1.00
12847;DHT22;6492;48.128;8.320;2023-06-14T11:03:43;28.60;1.00
12847;DHT22;6492;48.128;8.320;2023-06-14T11:07:58;28.90;1.00
12847;DHT22;6492;48.128;8.320;2023-06-14T11:12:10;29.00;1.00
12847;DHT22;6492;48.128;8.320;2023-06-14T11:16:14;29.10;1.00
12847;DHT22;6492;48.128;8.320;2023-06-14T11:20:18;29.00;1.00
12847;DHT22;6492;48.128;8.320;2023-06-14T11:24:20;28.70;1.00
12847;DHT22;6492;48.128;8.320;2023-06-14T11:28:23;28.70;1.00
12847;DHT22;6492;48.128;8.320;2023-06-14T11:32:25;28.80;1.00
12847;DHT22;6492;48.128;8.320;2023-06-14T11:36:28;29.10;1.00
12847;DHT22;6492;48.128;8.320;2023-06-14T11:40:31;29.20;1.00
12847;DHT22;6492;48.128;8.320;2023-06-14T11:44:34;29.30;1.00
12847;DHT22;6492;48.128;8.320;2023-06-14T11:48:36;29.50;1.00
12847;DHT22;6492;48.128;8.320;2023-06-14T11:52:39;29.60;1.00
12847;DHT22;6492;48.128;8.320;2023-06-14T11:56:41;29.50;1.00
12847;DHT22;6492;48.128;8.320;2023-06-14T12:00:45;29.00;1.00
12847;DHT22;6492;48.128;8.320;2023-06-14T12:04:50;29.10;1.00
12847;DHT22;6492;48.128;8.320;2023-06-14T12:08:55;29.10;1.00
12847;DHT22;6492;48.128;8.320;2023-06-14T12:12:58;29.20;1.00
12847;DHT22;6492;48.128;8.320;2023-06-14T12:17:08;29.70;1.00
12847;DHT22;6492;48.128;8.320;2023-06-14T12:21:10;29.80;1.00
12847;DHT22;6492;48.128;8.320;2023-06-14T12:25:23;30.30;1.00
12847;DHT22;6492;48.128;8.320;2023-06-14T12:29:27;30.30;1.00
12847;DHT22;6492;48.128;8.320;2023-06-14T12:33:30;29.90;1.00
12847;DHT22;6492;48.128;8.320;2023-06-14T12:37:32;29.40;1.00
12847;DHT22;6492;48.128;8.320;2023-06-14T12:41:34;29.30;1.00
12847;DHT22;6492;48.128;8.320;2023-06-14T12:45:37;29.60;1.00
12847;DHT22;6492;48.128;8.320;2023-06-14T12:49:40;29.60;1.00
12847;DHT22;6492;48.128;8.320;2023-06-14T12:53:43;29.70;1.00
12847;DHT22;6492;48.128;8.320;2023-06-14T12:57:44;30.00;1.00
12847;DHT22;6492;48.128;8.320;2023-06-14T13:01:46;30.30;1.00
12847;DHT22;6492;48.128;8.320;2023-06-14T13:05:52;30.10;1.00
12847;DHT22;6492;48.128;8.320;2023-06-14T13:09:53;29.10;1.00
12847;DHT22;6492;48.128;8.320;2023-06-14T13:13:55;28.10;1.00
12847;DHT22;6492;48.128;8.320;2023-06-14T13:17:57;27.90;1.00
12847;DHT22;6492;48.128;8.320;2023-06-14T13:22:00;28.60;1.00
12847;DHT22;6492;48.128;8.320;2023-06-14T13:26:02;29.40;1.00
12847;DHT22;6492;48.128;8.320;2023-06-14T13:30:34;29.90;1.00
12847;DHT22;6492;48.128;8.320;2023-06-14T13:34:35;30.00;1.00
12847;DHT22;6492;48.128;8.320;2023-06-14T13:38:38;29.50;1.00
12847;DHT22;6492;48.128;8.320;2023-06-14T13:42:40;29.70;1.00
12847;DHT22;6492;48.128;8.320;2023-06-14T13:46:42;30.20;1.00
12847;DHT22;6492;48.128;8.320;2023-06-14T13:50:44;30.30;1.00
12847;DHT22;6492;48.128;8.320;2023-06-14T13:54:48;30.20;1.00
12847;DHT22;6492;48.128;8.320;2023-06-14T13:58:50;30.30;1.00
12847;DHT22;6492;48.128;8.320;2023-06-14T14:02:52;30.20;1.00
12847;DHT22;6492;48.128;8.320;2023-06-14T14:06:55;30.30;1.00
12847;DHT22;6492;48.128;8.320;2023-06-14T14:10:58;29.90;1.00
12847;DHT22;6492;48.128;8.320;2023-06-14T14:15:00;29.70;1.00
12847;DHT22;6492;48.128;8.320;2023-06-14T14:19:02;29.60;1.00
12847;DHT22;6492;48.128;8.320;2023-06-14T14:23:04;29.30;1.00
12847;DHT22;6492;48.128;8.320;2023-06-14T14:27:08;28.70;1.00
12847;DHT22;6492;48.128;8.320;2023-06-14T14:31:10;28.60;1.00
12847;DHT22;6492;48.128;8.320;2023-06-14T14:35:12;28.80;1.00
12847;DHT22;6492;48.128;8.320;2023-06-14T14:39:14;29.20;1.00
12847;DHT22;6492;48.128;8.320;2023-06-14T14:43:17;29.40;1.00
12847;DHT22;6492;48.128;8.320;2023-06-14T14:47:19;29.50;1.00
12847;DHT22;6492;48.128;8.320;2023-06-14T14:51:21;29.80;1.00
12847;DHT22;6492;48.128;8.320;2023-06-14T14:55:23;29.60;1.00
12847;DHT22;6492;48.128;8.320;2023-06-14T14:59:27;28.80;1.00
12847;DHT22;6492;48.128;8.320;2023-06-14T15:03:28;28.50;1.00
12847;DHT22;6492;48.128;8.320;2023-06-14T15:07:31;29.10;1.00
12847;DHT22;6492;48.128;8.320;2023-06-14T15:12:01;29.60;1.00
12847;DHT22;6492;48.128;8.320;2023-06-14T15:16:06;30.20;1.00
12847;DHT22;6492;48.128;8.320;2023-06-14T15:20:11;30.40;1.00
12847;DHT22;6492;48.128;8.320;2023-06-14T15:24:14;30.40;1.00
12847;DHT22;6492;48.128;8.320;2023-06-14T15:28:25;30.60;1.00
12847;DHT22;6492;48.128;8.320;2023-06-14T15:32:50;30.50;1.00
12847;DHT22;6492;48.128;8.320;2023-06-14T15:36:52;30.80;1.00
12847;DHT22;6492;48.128;8.320;2023-06-14T15:40:54;30.90;1.00
12847;DHT22;6492;48.128;8.320;2023-06-14T15:44:56;30.80;1.00
12847;DHT22;6492;48.128;8.320;2023-06-14T15:49:13;30.60;1.00
12847;DHT22;6492;48.128;8.320;2023-06-14T15:53:21;30.60;1.00
12847;DHT22;6492;48.128;8.320;2023-06-14T15:57:24;30.30;1.00
12847;DHT22;6492;48.128;8.320;2023-06-14T16:01:26;30.00;1.00
12847;DHT22;6492;48.128;8.320;2023-06-14T16:05:42;29.30;1.00
12847;DHT22;6492;48.128;8.320;2023-06-14T16:09:44;28.50;1.00
12847;DHT22;6492;48.128;8.320;2023-06-14T16:13:46;28.30;1.00
12847;DHT22;6492;48.128;8.320;2023-06-14T16:17:48;28.50;1.00
12847;DHT22;6492;48.128;8.320;2023-06-14T16:21:52;28.40;1.00
12847;DHT22;6492;48.128;8.320;2023-06-14T16:25:54;28.60;1.00
12847;DHT22;6492;48.128;8.320;2023-06-14T16:29:56;28.80;1.00
12847;DHT22;6492;48.128;8.320;2023-06-14T16:33:58;29.00;1.00
12847;DHT22;6492;48.128;8.320;2023-06-14T16:38:01;28.90;1.00
12847;DHT22;6492;48.128;8.320;2023-06-14T16:42:04;28.60;1.00
12847;DHT22;6492;48.128;8.320;2023-06-14T16:46:07;28.70;1.00
12847;DHT22;6492;48.128;8.320;2023-06-14T16:50:09;28.70;1.00
12847;DHT22;6492;48.128;8.320;2023-06-14T16:54:34;28.40;1.00
12847;DHT22;6492;48.128;8.320;2023-06-14T16:59:12;28.10;1.00
12847;DHT22;6492;48.128;8.320;2023-06-14T17:03:16;27.90;1.00
12847;DHT22;6492;48.128;8.320;2023-06-14T17:07:18;27.50;1.00
12847;DHT22;6492;48.128;8.320;2023-06-14T17:11:27;27.30;1.00
12847;DHT22;6492;48.128;8.320;2023-06-14T17:15:29;27.20;1.00
12847;DHT22;6492;48.128;8.320;2023-06-14T17:19:33;27.10;1.00
12847;DHT22;6492;48.128;8.320;2023-06-14T17:23:35;26.80;1.00
12847;DHT22;6492;48.128;8.320;2023-06-14T17:27:41;26.60;1.00
12847;DHT22;6492;48.128;8.320;2023-06-14T17:31:55;26.40;1.00
12847;DHT22;6492;48.128;8.320;2023-06-14T17:35:57;26.20;1.00
12847;DHT22;6492;48.128;8.320;2023-06-14T17:39:58;26.10;1.00
12847;DHT22;6492;48.128;8.320;2023-06-14T17:44:02;25.90;1.00
12847;DHT22;6492;48.128;8.320;2023-06-14T17:48:04;25.70;1.00
12847;DHT22;6492;48.128;8.320;2023-06-14T17:52:07;25.40;1.00
12847;DHT22;6492;48.128;8.320;2023-06-14T17:56:12;25.30;1.00
12847;DHT22;6492;48.128;8.320;2023-06-14T18:00:18;25.10;1.00
12847;DHT22;6492;48.128;8.320;2023-06-14T18:04:29;25.00;1.00
12847;DHT22;6492;48.128;8.320;2023-06-14T18:13:13;24.40;1.00
12847;DHT22;6492;48.128;8.320;2023-06-14T18:17:49;24.10;1.00
12847;DHT22;6492;48.128;8.320;2023-06-14T18:21:52;23.80;1.00
12847;DHT22;6492;48.128;8.320;2023-06-14T18:25:54;23.50;1.00
12847;DHT22;6492;48.128;8.320;2023-06-14T18:29:56;23.30;1.00
12847;DHT22;6492;48.128;8.320;2023-06-14T18:34:06;23.00;1.00
12847;DHT22;6492;48.128;8.320;2023-06-14T18:38:08;22.80;1.00
12847;DHT22;6492;48.128;8.320;2023-06-14T18:42:13;22.50;1.00
12847;DHT22;6492;48.128;8.320;2023-06-14T18:46:17;22.20;1.00
12847;DHT22;6492;48.128;8.320;2023-06-14T18:50:39;21.80;1.00
12847;DHT22;6492;48.128;8.320;2023-06-14T18:54:57;21.50;1.00
12847;DHT22;6492;48.128;8.320;2023-06-14T18:59:13;21.30;1.00
12847;DHT22;6492;48.128;8.320;2023-06-14T19:07:51;20.50;1.00
12847;DHT22;6492;48.128;8.320;2023-06-14T19:12:20;19.80;1.00
12847;DHT22;6492;48.128;8.320;2023-06-14T19:16:22;19.00;1.00
12847;DHT22;6492;48.128;8.320;2023-06-14T19:20:25;18.50;1.00
12847;DHT22;6492;48.128;8.320;2023-06-14T19:24:29;18.00;1.00
12847;DHT22;6492;48.128;8.320;2023-06-14T19:28:38;17.50;1.00
12847;DHT22;6492;48.128;8.320;2023-06-14T19:32:40;17.10;1.00
12847;DHT22;6492;48.128;8.320;2023-06-14T19:37:11;16.80;1.00
12847;DHT22;6492;48.128;8.320;2023-06-14T19:41:16;16.40;1.00
12847;DHT22;6492;48.128;8.320;2023-06-14T19:45:19;16.00;1.00
12847;DHT22;6492;48.128;8.320;2023-06-14T19:49:21;15.80;1.00
12847;DHT22;6492;48.128;8.320;2023-06-14T19:53:23;15.50;1.00
12847;DHT22;6492;48.128;8.320;2023-06-14T19:57:26;15.20;1.00
12847;DHT22;6492;48.128;8.320;2023-06-14T20:01:29;14.90;1.00
12847;DHT22;6492;48.128;8.320;2023-06-14T20:05:30;14.70;1.00
12847;DHT22;6492;48.128;8.320;2023-06-14T20:09:35;14.50;1.00
12847;DHT22;6492;48.128;8.320;2023-06-14T20:13:43;14.30;1.00
12847;DHT22;6492;48.128;8.320;2023-06-14T20:17:50;14.10;1.00
12847;DHT22;6492;48.128;8.320;2023-06-14T20:21:52;14.00;1.00
12847;DHT22;6492;48.128;8.320;2023-06-14T20:26:25;13.80;1.10
12847;DHT22;6492;48.128;8.320;2023-06-14T20:30:46;13.70;1.40
12847;DHT22;6492;48.128;8.320;2023-06-14T20:34:55;13.50;1.70
12847;DHT22;6492;48.128;8.320;2023-06-14T20:38:57;13.40;2.40
12847;DHT22;6492;48.128;8.320;2023-06-14T20:43:02;13.30;3.10
12847;DHT22;6492;48.128;8.320;2023-06-14T20:47:08;13.30;3.90
12847;DHT22;6492;48.128;8.320;2023-06-14T20:51:12;13.20;4.10
12847;DHT22;6492;48.128;8.320;2023-06-14T20:55:14;13.20;3.80
12847;DHT22;6492;48.128;8.320;2023-06-14T20:59:18;13.20;4.20
12847;DHT22;6492;48.128;8.320;2023-06-14T21:03:21;13.30;4.50
12847;DHT22;6492;48.128;8.320;2023-06-14T21:07:23;13.40;4.70
12847;DHT22;6492;48.128;8.320;2023-06-14T21:11:25;13.50;4.00
12847;DHT22;6492;48.128;8.320;2023-06-14T21:15:27;13.50;4.20
12847;DHT22;6492;48.128;8.320;2023-06-14T21:19:30;13.60;4.50
12847;DHT22;6492;48.128;8.320;2023-06-14T21:23:32;13.60;4.30
12847;DHT22;6492;48.128;8.320;2023-06-14T21:27:34;13.60;4.70
12847;DHT22;6492;48.128;8.320;2023-06-14T21:31:36;13.50;4.80
12847;DHT22;6492;48.128;8.320;2023-06-14T21:35:40;13.50;5.20
12847;DHT22;6492;48.128;8.320;2023-06-14T21:39:41;13.50;5.20
12847;DHT22;6492;48.128;8.320;2023-06-14T21:43:43;13.50;5.40
12847;DHT22;6492;48.128;8.320;2023-06-14T21:47:46;13.50;5.50
12847;DHT22;6492;48.128;8.320;2023-06-14T21:51:51;13.60;5.50
12847;DHT22;6492;48.128;8.320;2023-06-14T21:55:53;13.70;5.90
12847;DHT22;6492;48.128;8.320;2023-06-14T21:59:55;13.80;5.40
12847;DHT22;6492;48.128;8.320;2023-06-14T22:03:57;13.80;5.40
12847;DHT22;6492;48.128;8.320;2023-06-14T22:08:00;13.90;5.00
12847;DHT22;6492;48.128;8.320;2023-06-14T22:12:03;13.90;5.40
12847;DHT22;6492;48.128;8.320;2023-06-14T22:16:05;13.90;5.50
12847;DHT22;6492;48.128;8.320;2023-06-14T22:20:09;13.90;5.30
12847;DHT22;6492;48.128;8.320;2023-06-14T22:24:12;13.80;5.40
12847;DHT22;6492;48.128;8.320;2023-06-14T22:28:14;13.80;5.30
12847;DHT22;6492;48.128;8.320;2023-06-14T22:32:17;13.60;5.80
12847;DHT22;6492;48.128;8.320;2023-06-14T22:36:20;13.50;5.70
12847;DHT22;6492;48.128;8.320;2023-06-14T22:40:26;13.30;6.40
12847;DHT22;6492;48.128;8.320;2023-06-14T22:44:28;13.10;7.30
12847;DHT22;6492;48.128;8.320;2023-06-14T22:48:33;12.90;7.80
12847;DHT22;6492;48.128;8.320;2023-06-14T22:52:44;12.80;8.50
12847;DHT22;6492;48.128;8.320;2023-06-14T22:56:47;12.60;9.10
12847;DHT22;6492;48.128;8.320;2023-06-14T23:00:50;12.40;10.30
12847;DHT22;6492;48.128;8.320;2023-06-14T23:04:52;12.20;11.40
12847;DHT22;6492;48.128;8.320;2023-06-14T23:08:55;12.10;11.40
12847;DHT22;6492;48.128;8.320;2023-06-14T23:13:01;12.00;11.90
12847;DHT22;6492;48.128;8.320;2023-06-14T23:17:04;11.80;12.20
12847;DHT22;6492;48.128;8.320;2023-06-14T23:21:07;11.70;13.10
12847;DHT22;6492;48.128;8.320;2023-06-14T23:25:11;11.40;13.80
12847;DHT22;6492;48.128;8.320;2023-06-14T23:29:15;11.30;14.70
12847;DHT22;6492;48.128;8.320;2023-06-14T23:33:19;11.20;16.20
12847;DHT22;6492;48.128;8.320;2023-06-14T23:37:22;11.10;16.20
12847;DHT22;6492;48.128;8.320;2023-06-14T23:41:24;11.00;16.60
12847;DHT22;6492;48.128;8.320;2023-06-14T23:45:32;10.90;17.30
12847;DHT22;6492;48.128;8.320;2023-06-14T23:49:36;10.80;18.10
12847;DHT22;6492;48.128;8.320;2023-06-14T23:53:38;10.80;18.10
12847;DHT22;6492;48.128;8.320;2023-06-14T23:57:41;10.80;18.20
